Time;durP1;ratioP1;P1;durP2;ratioP2;P2;SDS_P1;SDS_P2;PMS_P1;PMS_P2;Temp;Humidity;BMP_temperature;BMP_pressure;BME280_temperature;BME280_humidity;BME280_pressure;Samples;Min_cycle;Max_cycle;Signal;HPM_P1;HPM_P2
2021/12/17 00:00:17;;;;;;;87.60;31.45;;;;;;;7.01;100.00;102404.75;5038876;28;20017;-77
2021/12/17 00:05:44;;;;;;;101.55;32.63;;;;;;;6.96;100.00;102417.03;5039056;28;20044;-76
2021/12/17 00:08:10;;;;;;;92.35;30.60;;;;;;;6.93;100.00;102413.44;5036241;28;20021;-76
2021/12/17 00:10:35;;;;;;;91.50;30.52;;;;;;;6.92;100.00;102403.69;5036215;28;20018;-76
2021/12/17 00:13:01;;;;;;;93.03;30.45;;;;;;;6.93;100.00;102405.47;5037632;28;20021;-76
2021/12/17 00:15:26;;;;;;;95.25;30.95;;;;;;;6.90;100.00;102404.53;5037548;28;20029;-77
2021/12/17 00:17:58;;;;;;;100.32;32.42;;;;;;;6.88;100.00;102408.91;5034359;28;20029;-77
2021/12/17 00:50:04;;;;;;;93.80;31.75;;;;;;;6.98;100.00;102394.94;5035997;28;20470;-77
2021/12/17 00:52:34;;;;;;;82.72;29.73;;;;;;;6.96;100.00;102391.34;5034634;28;20401;-76
2021/12/17 00:55:00;;;;;;;94.13;30.90;;;;;;;6.92;100.00;102401.03;5036180;28;20029;-77
2021/12/17 00:57:35;;;;;;;99.00;31.92;;;;;;;6.89;100.00;102413.34;5035410;28;20092;-77
2021/12/17 01:00:04;;;;;;;102.50;34.15;;;;;;;6.86;100.00;102406.19;5032605;28;20445;-77
2021/12/17 01:02:32;;;;;;;111.25;32.63;;;;;;;6.87;100.00;102405.34;5033922;28;20025;-76
2021/12/17 01:05:01;;;;;;;95.63;31.27;;;;;;;6.99;100.00;102399.38;5034901;28;20508;-77
2021/12/17 01:07:30;;;;;;;94.28;29.45;;;;;;;7.02;100.00;102394.13;5034676;28;20036;-76
2021/12/17 01:09:56;;;;;;;103.78;33.15;;;;;;;6.95;100.00;102394.88;5034824;28;20053;-77
2021/12/17 01:12:23;;;;;;;96.18;32.25;;;;;;;6.89;100.00;102392.09;5034440;28;20021;-77
2021/12/17 01:14:51;;;;;;;91.00;32.08;;;;;;;6.90;100.00;102385.94;5035359;28;20033;-77
2021/12/17 01:17:19;;;;;;;97.55;31.75;;;;;;;6.82;100.00;102388.44;5035923;28;20029;-76
2021/12/17 01:20:16;;;;;;;95.50;31.92;;;;;;;6.80;100.00;102399.00;5036178;28;20045;-77
2021/12/17 01:25:39;;;;;;;99.35;31.30;;;;;;;6.83;100.00;102408.78;5036064;28;20036;-77
2021/12/17 01:36:23;;;;;;;114.75;31.92;;;;;;;6.73;100.00;102415.69;5035731;28;20036;-77
2021/12/17 01:43:50;;;;;;;94.95;28.65;;;;;;;6.80;100.00;102398.13;5035655;28;20037;-77
2021/12/17 01:46:31;;;;;;;94.68;29.50;;;;;;;6.81;100.00;102403.47;5034343;28;20085;-76
2021/12/17 02:00:18;;;;;;;92.00;29.00;;;;;;;6.70;100.00;102405.03;5033920;28;20029;-77
2021/12/17 02:02:51;;;;;;;91.40;28.48;;;;;;;6.67;100.00;102416.47;5035150;28;20040;-77
2021/12/17 02:05:16;;;;;;;98.27;28.67;;;;;;;6.66;100.00;102425.28;5039934;28;20096;-77
2021/12/17 02:07:44;;;;;;;102.57;29.75;;;;;;;6.69;100.00;102429.78;5037718;28;20043;-77
2021/12/17 02:21:01;;;;;;;121.35;32.53;;;;;;;6.62;100.00;102427.84;5038245;28;20037;-77
2021/12/17 02:32:01;;;;;;;145.80;36.50;;;;;;;6.59;100.00;102412.75;5039948;28;20037;-76
2021/12/17 02:34:55;;;;;;;142.70;34.25;;;;;;;6.57;100.00;102411.84;5038539;28;20034;-77
2021/12/17 02:37:21;;;;;;;152.77;34.92;;;;;;;6.55;100.00;102410.88;5039316;28;20032;-77
2021/12/17 02:40:07;;;;;;;128.93;31.67;;;;;;;6.57;100.00;102412.72;5038612;28;20085;-77
2021/12/17 02:45:32;;;;;;;98.45;25.58;;;;;;;6.59;100.00;102411.00;5039389;28;20071;-77
2021/12/17 02:48:12;;;;;;;99.25;26.92;;;;;;;6.56;100.00;102402.97;5039017;28;20060;-77
2021/12/17 02:50:41;;;;;;;110.38;27.73;;;;;;;6.54;100.00;102404.72;5037799;28;20036;-77
2021/12/17 02:53:10;;;;;;;111.78;26.60;;;;;;;6.53;100.00;102400.25;5038382;28;20040;-76
2021/12/17 02:55:39;;;;;;;115.28;27.88;;;;;;;6.52;100.00;102398.44;5036952;28;20390;-76
2021/12/17 02:58:06;;;;;;;89.22;25.13;;;;;;;6.57;100.00;102396.78;5037432;28;20113;-77
2021/12/17 03:00:34;;;;;;;85.82;24.70;;;;;;;6.58;100.00;102401.25;5037197;28;20022;-76
2021/12/17 03:03:02;;;;;;;96.30;25.55;;;;;;;6.58;100.00;102390.63;5038016;28;20069;-76
2021/12/17 03:05:28;;;;;;;81.32;23.35;;;;;;;6.57;100.00;102391.47;5036978;28;20091;-77
2021/12/17 03:07:55;;;;;;;99.07;24.38;;;;;;;6.56;100.00;102379.09;5037840;28;20021;-76
2021/12/17 03:10:20;;;;;;;95.20;25.05;;;;;;;6.56;100.00;102387.03;5039713;28;20093;-77
2021/12/17 03:25:44;;;;;;;119.95;26.77;;;;;;;6.50;100.00;102400.19;5038081;28;20620;-76
2021/12/17 03:28:09;;;;;;;115.30;26.83;;;;;;;6.47;100.00;102405.41;5035473;28;20065;-77
2021/12/17 03:30:35;;;;;;;130.35;27.40;;;;;;;6.44;100.00;102400.94;5036089;28;20132;-77
2021/12/17 03:33:00;;;;;;;158.68;28.70;;;;;;;6.42;100.00;102399.09;5036631;28;20100;-76
2021/12/17 03:35:25;;;;;;;120.60;26.63;;;;;;;6.42;100.00;102405.31;5036985;28;20478;-76
2021/12/17 03:37:51;;;;;;;144.38;28.05;;;;;;;6.40;100.00;102411.44;5035838;28;20428;-76
2021/12/17 03:40:18;;;;;;;195.40;30.70;;;;;;;6.38;100.00;102408.78;5036643;28;20396;-77
2021/12/17 03:42:47;;;;;;;199.85;31.48;;;;;;;6.37;100.00;102413.19;5037494;28;20028;-76
2021/12/17 03:45:14;;;;;;;192.90;31.15;;;;;;;6.37;100.00;102410.53;5035641;28;20032;-76
2021/12/17 03:47:39;;;;;;;211.23;33.00;;;;;;;6.37;100.00;102407.88;5035854;28;20097;-77
2021/12/17 03:50:05;;;;;;;304.65;37.17;;;;;;;6.36;100.00;102418.47;5036538;28;20056;-77
2021/12/17 03:52:30;;;;;;;214.38;32.95;;;;;;;6.35;100.00;102420.22;5036320;28;20097;-76
2021/12/17 03:54:56;;;;;;;181.23;29.92;;;;;;;6.34;100.00;102429.03;5036432;28;20031;-76
2021/12/17 03:57:22;;;;;;;232.93;31.60;;;;;;;6.36;100.00;102437.03;5036744;28;20040;-76
2021/12/17 03:59:48;;;;;;;288.20;36.80;;;;;;;6.33;100.00;102437.88;5034524;28;20117;-76
2021/12/17 04:02:13;;;;;;;249.25;33.33;;;;;;;6.34;100.00;102436.13;5035013;28;20490;-76
2021/12/17 04:04:38;;;;;;;422.27;40.28;;;;;;;6.32;100.00;102429.84;5034913;28;20025;-76
2021/12/17 04:07:04;;;;;;;268.83;32.70;;;;;;;6.32;100.00;102425.44;5035652;28;20029;-76
2021/12/17 04:09:31;;;;;;;270.48;31.80;;;;;;;6.30;100.00;102431.59;5035781;28;20079;-76
2021/12/17 04:11:56;;;;;;;289.73;35.78;;;;;;;6.30;100.00;102427.19;5036204;28;20029;-77
2021/12/17 04:14:32;;;;;;;253.85;32.72;;;;;;;6.31;100.00;102431.63;5038136;28;20022;-77
2021/12/17 04:17:02;;;;;;;283.10;34.80;;;;;;;6.29;100.00;102425.38;5037594;28;20128;-77
2021/12/17 04:19:28;;;;;;;273.23;32.70;;;;;;;6.30;100.00;102427.19;5035467;28;20024;-77
2021/12/17 04:21:53;;;;;;;327.98;35.60;;;;;;;6.27;100.00;102427.09;5037443;28;20465;-77
2021/12/17 04:24:18;;;;;;;275.33;32.63;;;;;;;6.26;100.00;102418.25;5035356;28;20029;-76
2021/12/17 04:26:44;;;;;;;317.05;35.50;;;;;;;6.26;100.00;102414.72;5035982;28;20025;-77
2021/12/17 04:29:09;;;;;;;162.63;25.40;;;;;;;6.25;100.00;102402.31;5036068;28;20028;-77
2021/12/17 04:31:34;;;;;;;157.80;25.05;;;;;;;6.23;100.00;102402.28;5033135;28;20112;-77
2021/12/17 04:34:00;;;;;;;141.18;23.58;;;;;;;6.24;100.00;102395.19;5035201;28;20029;-77
2021/12/17 04:36:29;;;;;;;152.05;24.67;;;;;;;6.24;100.00;102390.78;5036807;28;20367;-77
2021/12/17 04:38:56;;;;;;;279.77;30.85;;;;;;;6.26;100.00;102374.91;5035802;28;20017;-77
2021/12/17 04:44:15;;;;;;;127.25;22.02;;;;;;;6.29;100.00;102361.69;5035533;28;20021;-77
2021/12/17 04:46:41;;;;;;;81.50;18.25;;;;;;;6.26;100.00;102364.31;5037333;28;20038;-77
2021/12/17 04:59:44;;;;;;;73.70;16.08;;;;;;;6.19;100.00;102383.59;5036175;28;20022;-77
2021/12/17 05:02:10;;;;;;;67.95;15.27;;;;;;;6.19;100.00;102391.53;5037264;28;20104;-77
2021/12/17 05:04:35;;;;;;;52.72;14.38;;;;;;;6.12;100.00;102383.47;5039119;28;20021;-77
2021/12/17 05:07:00;;;;;;;60.05;14.30;;;;;;;6.16;100.00;102388.84;5035599;28;20021;-77
2021/12/17 05:09:40;;;;;;;42.28;12.77;;;;;;;6.13;100.00;102387.88;5038770;28;20025;-77
2021/12/17 05:21:02;;;;;;;49.30;12.20;;;;;;;6.06;100.00;102416.84;5004361;28;19909;-77
2021/12/17 05:23:08;;;;;;;64.55;13.90;;;;;;;6.14;100.00;102421.53;5029450;28;20076;-77
2021/12/17 05:25:33;;;;;;;56.08;13.35;;;;;;;6.17;100.00;102433.06;5035576;28;20033;-77
2021/12/17 05:28:02;;;;;;;62.75;14.85;;;;;;;6.14;100.00;102421.53;5037384;28;20064;-77
2021/12/17 05:30:33;;;;;;;106.80;17.02;;;;;;;6.12;100.00;102428.56;5035509;28;20022;-77
2021/12/17 05:32:58;;;;;;;160.02;19.40;;;;;;;6.08;100.00;102424.03;5035585;28;20152;-77
2021/12/17 05:35:25;;;;;;;303.00;24.27;;;;;;;6.05;100.00;102415.97;5035598;28;20053;-77
2021/12/17 05:37:50;;;;;;;375.15;27.60;;;;;;;6.02;100.00;102410.59;5036838;28;20035;-77
2021/12/17 05:40:16;;;;;;;300.23;25.25;;;;;;;6.01;100.00;102409.69;5040011;28;20021;-77
2021/12/17 05:42:42;;;;;;;264.98;25.08;;;;;;;6.01;100.00;102412.34;5038834;28;20025;-76
2021/12/17 05:45:21;;;;;;;135.15;21.05;;;;;;;6.01;100.00;102403.50;5061367;22;20033;-85
2021/12/17 05:48:09;;;;;;;93.68;19.25;;;;;;;6.03;100.00;102407.09;5018988;28;20096;-92
2021/12/17 05:50:38;;;;;;;219.07;25.13;;;;;;;6.03;100.00;102397.34;5018270;28;20026;-91
2021/12/17 05:53:05;;;;;;;192.98;24.17;;;;;;;6.02;100.00;102400.91;5018187;28;20548;-90
2021/12/17 05:55:34;;;;;;;304.98;26.52;;;;;;;6.02;100.00;102402.66;5016824;28;20459;-90
2021/12/17 05:58:06;;;;;;;243.90;24.83;;;;;;;6.02;100.00;102406.19;5016556;28;20025;-91
2021/12/17 06:00:46;;;;;;;108.28;18.23;;;;;;;6.01;100.00;102388.47;5033202;28;20026;-90
2021/12/17 06:03:17;;;;;;;89.40;17.63;;;;;;;6.03;100.00;102385.88;5017457;28;20046;-93
2021/12/17 06:05:44;;;;;;;93.55;19.98;;;;;;;6.04;100.00;102375.28;5017011;28;20025;-89
2021/12/17 06:08:18;;;;;;;104.43;20.20;;;;;;;6.03;100.00;102380.56;5017439;28;20034;-90
2021/12/17 06:10:44;;;;;;;132.07;18.08;;;;;;;6.02;100.00;102390.28;5016995;28;20041;-90
2021/12/17 06:13:24;;;;;;;76.13;16.92;;;;;;;6.00;100.00;102388.47;5035953;28;20025;-91
2021/12/17 06:15:56;;;;;;;100.22;18.27;;;;;;;5.99;100.00;102387.56;5018440;28;20120;-91
2021/12/17 06:18:36;;;;;;;68.70;15.85;;;;;;;5.99;100.00;102394.59;5033646;28;20028;-92
2021/12/17 06:21:20;;;;;;;73.30;15.45;;;;;;;5.97;100.00;102394.59;5017681;28;20038;-92
2021/12/17 06:24:00;;;;;;;69.63;16.50;;;;;;;5.97;100.00;102396.34;5019423;28;20029;-92
2021/12/17 06:26:55;;;;;;;;;;;;;;;;;;;;;
2021/12/17 06:29:24;;;;;;;82.15;17.25;;;;;;;5.97;100.00;102401.63;5016977;28;20036;-90
2021/12/17 06:31:52;;;;;;;123.75;19.55;;;;;;;5.93;100.00;102401.56;5015686;28;20029;-87
2021/12/17 06:34:17;;;;;;;97.55;19.08;;;;;;;5.94;100.00;102402.47;5015617;28;20044;-89
2021/12/17 06:36:43;;;;;;;72.93;17.50;;;;;;;5.92;100.00;102406.84;5015745;28;20558;-90
2021/12/17 06:39:08;;;;;;;92.97;18.05;;;;;;;5.92;100.00;102405.09;5015704;28;20022;-90
2021/12/17 06:41:38;;;;;;;78.75;16.33;;;;;;;5.91;100.00;102402.38;5018706;28;20072;-89
2021/12/17 06:44:06;;;;;;;70.45;16.77;;;;;;;5.89;100.00;102410.31;5032254;28;20032;-89
2021/12/17 06:46:54;;;;;;;62.28;14.50;;;;;;;5.87;100.00;102414.69;5032641;28;20037;-88
2021/12/17 07:36:05;;;;;;;62.95;13.35;;;;;;;5.82;100.00;102445.50;5015891;28;20104;-87
2021/12/17 07:39:30;;;;;;;65.43;13.60;;;;;;;5.80;100.00;102457.78;5012631;28;20032;-89
2021/12/17 07:41:58;;;;;;;63.33;13.18;;;;;;;5.82;100.00;102448.16;5010958;28;20085;-87
2021/12/17 07:44:53;;;;;;;41.92;10.38;;;;;;;5.82;100.00;102446.38;5009269;28;20038;-88
2021/12/17 07:47:18;;;;;;;45.78;11.27;;;;;;;5.84;100.00;102446.44;5014534;28;20029;-88
2021/12/17 07:49:43;;;;;;;51.08;12.25;;;;;;;5.80;100.00;102463.09;5013537;28;20092;-88
2021/12/17 07:52:09;;;;;;;54.40;13.02;;;;;;;5.83;100.00;102457.88;5013999;28;20029;-88
2021/12/17 07:54:34;;;;;;;67.75;14.75;;;;;;;5.83;100.00;102452.56;5030179;28;20018;-88
2021/12/17 07:56:59;;;;;;;52.92;14.30;;;;;;;5.88;100.00;102445.63;5014895;28;20026;-88
2021/12/17 07:59:25;;;;;;;86.40;15.75;;;;;;;5.83;100.00;102457.88;5013762;28;20021;-88
2021/12/17 08:01:50;;;;;;;60.42;13.45;;;;;;;5.82;100.00;102442.84;5029527;28;20391;-88
2021/12/17 08:04:15;;;;;;;54.75;13.60;;;;;;;5.82;100.00;102450.81;5014760;28;20475;-88
2021/12/17 08:06:41;;;;;;;45.92;11.70;;;;;;;5.80;100.00;102436.59;5029899;28;20037;-88
2021/12/17 08:09:06;;;;;;;42.03;11.90;;;;;;;5.79;100.00;102434.81;5014794;28;20018;-88
2021/12/17 08:11:39;;;;;;;45.92;11.55;;;;;;;5.80;100.00;102431.28;5029943;28;20549;-88
2021/12/17 08:14:09;;;;;;;43.00;12.63;;;;;;;5.82;100.00;102429.59;5013707;28;20030;-88
2021/12/17 08:16:43;;;;;;;40.10;10.98;;;;;;;5.84;100.00;102427.88;5029913;28;20263;-88
2021/12/17 08:23:20;;;;;;;;;;;;;;;5.89;100.00;102426.22;5031064;28;20018;-88
2021/12/17 08:24:47;;;;;;;38.47;9.77;;;;;;;5.82;100.00;102435.75;5014882;28;20553;-88
2021/12/17 08:27:27;;;;;;;32.08;9.40;;;;;;;5.82;100.00;102429.59;5013156;28;20057;-88
2021/12/17 08:30:20;;;;;;;33.80;8.85;;;;;;;5.91;100.00;102435.09;5029530;28;20034;-88
2021/12/17 08:32:46;;;;;;;24.75;8.00;;;;;;;5.97;100.00;102436.13;5013294;28;20479;-88
2021/12/17 08:35:12;;;;;;;23.60;7.35;;;;;;;5.96;100.00;102450.22;5029471;28;20079;-88
2021/12/17 08:37:38;;;;;;;21.20;6.70;;;;;;;5.91;100.00;102440.41;5014304;28;20018;-87
2021/12/17 08:40:05;;;;;;;19.27;6.00;;;;;;;6.01;100.00;102445.91;5014242;28;20098;-87
2021/12/17 08:42:30;;;;;;;20.92;6.93;;;;;;;5.88;100.00;102448.28;5012470;28;20032;-88
2021/12/17 08:44:56;;;;;;;18.27;6.18;;;;;;;5.87;100.00;102438.56;5013133;28;20104;-88
2021/12/17 08:47:21;;;;;;;21.92;6.80;;;;;;;5.87;100.00;102449.16;5029190;28;20055;-88
2021/12/17 08:49:48;;;;;;;21.63;6.93;;;;;;;5.84;100.00;102459.69;5029355;28;20026;-89
2021/12/17 08:52:14;;;;;;;22.80;6.88;;;;;;;5.85;100.00;102461.47;5012671;28;20478;-88
2021/12/17 08:54:39;;;;;;;25.17;7.68;;;;;;;5.86;100.00;102463.25;5012820;28;20024;-87
2021/12/17 08:57:06;;;;;;;20.70;7.18;;;;;;;5.88;100.00;102466.84;5029471;28;20140;-88
2021/12/17 08:59:31;;;;;;;21.13;7.97;;;;;;;5.83;100.00;102465.84;5012788;28;20044;-88
2021/12/17 09:01:57;;;;;;;25.88;8.38;;;;;;;5.84;100.00;102459.69;5013410;28;20463;-87
2021/12/17 09:04:23;;;;;;;31.00;9.82;;;;;;;5.86;100.00;102467.66;5012612;28;20029;-88
2021/12/17 09:06:49;;;;;;;30.83;9.63;;;;;;;5.90;100.00;102469.56;5028970;28;20026;-88
2021/12/17 09:09:18;;;;;;;28.02;10.27;;;;;;;5.90;100.00;102472.22;5028866;28;20025;-88
2021/12/17 09:11:44;;;;;;;28.80;10.35;;;;;;;5.89;100.00;102481.00;5014068;28;20052;-87
2021/12/17 09:14:10;;;;;;;28.45;10.18;;;;;;;5.95;100.00;102490.88;5011631;28;20116;-88
2021/12/17 09:16:36;;;;;;;28.08;9.93;;;;;;;5.89;100.00;102484.56;5013474;28;20021;-88
2021/12/17 09:19:03;;;;;;;31.58;9.68;;;;;;;5.89;100.00;102488.97;5012696;28;20034;-88
2021/12/17 09:21:29;;;;;;;26.27;8.80;;;;;;;5.91;100.00;102487.25;5012375;28;20049;-88
2021/12/17 09:23:55;;;;;;;23.63;8.52;;;;;;;5.93;100.00;102496.13;5028779;28;20379;-88
2021/12/17 09:26:22;;;;;;;26.63;8.40;;;;;;;5.98;100.00;102497.13;5012505;28;20025;-89
2021/12/17 09:28:47;;;;;;;24.85;8.38;;;;;;;6.00;100.00;102505.16;5028688;28;20109;-88
2021/12/17 09:31:13;;;;;;;23.70;8.07;;;;;;;6.02;100.00;102506.97;5013530;28;20483;-88
2021/12/17 09:33:40;;;;;;;21.50;7.57;;;;;;;5.97;100.00;102497.09;5028636;28;20060;-88
2021/12/17 09:36:05;;;;;;;19.42;7.00;;;;;;;5.95;100.00;102498.84;5012152;28;20045;-88
2021/12/17 09:38:31;;;;;;;17.65;6.25;;;;;;;5.94;100.00;102497.94;5012387;28;20060;-88
2021/12/17 09:40:56;;;;;;;13.15;5.38;;;;;;;5.96;100.00;102490.91;5028992;28;20026;-88
2021/12/17 09:43:22;;;;;;;14.27;6.25;;;;;;;6.01;100.00;102504.28;5013429;28;20509;-88
2021/12/17 09:45:47;;;;;;;15.75;6.05;;;;;;;6.05;100.00;102500.84;5012115;28;20400;-88
2021/12/17 09:48:14;;;;;;;14.88;5.85;;;;;;;6.09;100.00;102502.75;5013568;28;20435;-88
2021/12/17 09:50:39;;;;;;;13.77;6.28;;;;;;;6.06;100.00;102497.31;5012118;28;20475;-87
2021/12/17 09:53:05;;;;;;;13.82;6.18;;;;;;;6.07;100.00;102504.47;5028893;28;20056;-88
2021/12/17 09:55:30;;;;;;;11.57;4.90;;;;;;;6.13;100.00;102501.94;5028953;28;20061;-88
2021/12/17 09:57:56;;;;;;;12.07;5.10;;;;;;;6.05;100.00;102511.47;5012928;28;20026;-89
2021/12/17 10:00:26;;;;;;;10.88;4.95;;;;;;;6.07;100.00;102499.16;5028572;28;20153;-88
2021/12/17 10:02:51;;;;;;;11.23;4.90;;;;;;;6.07;100.00;102499.16;5028700;28;20025;-89
2021/12/17 10:05:21;;;;;;;11.13;4.60;;;;;;;6.11;100.00;102508.97;5028548;28;20033;-89
2021/12/17 10:07:54;;;;;;;11.25;5.03;;;;;;;6.11;100.00;102516.94;5012073;28;20393;-88
2021/12/17 10:10:20;;;;;;;10.82;5.10;;;;;;;6.11;100.00;102511.63;5011986;28;20033;-88
2021/12/17 10:12:46;;;;;;;14.25;5.10;;;;;;;6.09;100.00;102502.75;5011974;28;20030;-88
2021/12/17 10:15:14;;;;;;;14.25;6.22;;;;;;;6.22;100.00;102503.03;5011887;28;20077;-88
2021/12/17 10:18:09;;;;;;;15.75;6.45;;;;;;;6.16;100.00;102497.59;5013163;28;20033;-87
2021/12/17 10:20:42;;;;;;;16.98;7.43;;;;;;;6.17;100.00;102494.06;5001325;28;20438;-88
2021/12/17 10:23:09;;;;;;;16.90;7.78;;;;;;;6.14;100.00;102493.16;5028456;28;20044;-88
2021/12/17 10:25:42;;;;;;;21.85;8.15;;;;;;;6.17;100.00;102483.47;5031325;28;20065;-88
2021/12/17 10:28:08;;;;;;;19.57;8.63;;;;;;;6.20;100.00;102495.06;5015494;28;20025;-87
2021/12/17 10:30:37;;;;;;;19.38;7.68;;;;;;;6.25;100.00;102495.16;5015490;28;20329;-88
2021/12/17 10:33:06;;;;;;;22.52;8.32;;;;;;;6.23;100.00;102486.28;5017024;28;20061;-88
2021/12/17 10:35:38;;;;;;;20.48;9.10;;;;;;;6.26;100.00;102489.00;5016759;28;20068;-88
2021/12/17 10:38:06;;;;;;;21.23;8.30;;;;;;;6.28;100.00;102491.69;5016634;28;20506;-88
2021/12/17 10:40:39;;;;;;;18.02;7.50;;;;;;;6.25;100.00;102487.22;5020564;28;20109;-88
2021/12/17 10:43:26;;;;;;;19.02;8.02;;;;;;;6.25;100.00;102488.09;5016567;28;20494;-89
2021/12/17 10:46:07;;;;;;;18.15;7.65;;;;;;;6.24;100.00;102488.06;5016725;28;20044;-89
2021/12/17 10:54:03;;;;;;;16.65;9.00;;;;;;;6.16;100.00;102493.16;5016615;28;20036;-89
2021/12/17 10:56:38;;;;;;;14.07;7.97;;;;;;;6.21;100.00;102494.19;5016334;28;20109;-88
2021/12/17 10:59:16;;;;;;;14.50;8.02;;;;;;;6.24;100.00;102498.66;5016537;28;20025;-88
2021/12/17 11:02:02;;;;;;;17.45;9.10;;;;;;;6.25;100.00;102497.81;5015368;28;20021;-88
2021/12/17 11:04:30;;;;;;;15.55;8.38;;;;;;;6.25;100.00;102500.47;5016213;28;20053;-88
2021/12/17 11:06:58;;;;;;;16.13;7.88;;;;;;;6.26;100.00;102491.66;5031153;28;20105;-88
2021/12/17 11:09:57;;;;;;;14.75;6.72;;;;;;;6.25;100.00;102498.72;5015720;28;20045;-87
2021/12/17 11:12:39;;;;;;;15.00;7.53;;;;;;;6.23;100.00;102491.59;5014611;28;20037;-88
2021/12/17 11:15:24;;;;;;;18.08;9.02;;;;;;;6.31;100.00;102492.66;5014586;28;20556;-89
2021/12/17 11:17:53;;;;;;;12.75;6.55;;;;;;;6.29;100.00;102498.81;5014586;28;20030;-87
2021/12/17 11:20:28;;;;;;;10.60;5.93;;;;;;;6.29;100.00;102497.03;5014518;28;20064;-88
2021/12/17 11:22:56;;;;;;;12.88;5.82;;;;;;;6.30;100.00;102496.16;5014596;28;20038;-88
2021/12/17 11:25:23;;;;;;;13.80;6.97;;;;;;;6.30;100.00;102496.16;5016008;28;20048;-87
2021/12/17 11:27:49;;;;;;;13.63;6.88;;;;;;;6.31;100.00;102497.97;5014309;28;20482;-88
2021/12/17 11:30:21;;;;;;;16.05;7.40;;;;;;;6.30;100.00;102503.22;5014394;28;20021;-87
2021/12/17 11:32:48;;;;;;;15.30;8.25;;;;;;;6.27;100.00;102506.72;5015012;28;20066;-87
2021/12/17 11:35:20;;;;;;;15.30;7.10;;;;;;;6.23;100.00;102502.19;5013720;28;20536;-86
2021/12/17 11:37:49;;;;;;;16.02;7.78;;;;;;;6.18;100.00;102503.84;5014970;28;20030;-87
2021/12/17 11:40:22;;;;;;;13.77;7.07;;;;;;;6.17;100.00;102494.97;5015744;28;20029;-85
2021/12/17 11:43:18;;;;;;;14.15;7.72;;;;;;;6.22;100.00;102492.44;5014451;28;20030;-84
2021/12/17 11:45:45;;;;;;;13.93;8.07;;;;;;;6.19;100.00;102498.56;5040575;22;21157;-75
2021/12/17 11:48:17;;;;;;;17.50;9.45;;;;;;;6.18;100.00;102495.88;5035350;28;20052;-75
2021/12/17 11:50:44;;;;;;;17.80;9.93;;;;;;;6.15;100.00;102486.09;5034839;28;20036;-75
2021/12/17 11:53:20;;;;;;;16.25;9.57;;;;;;;6.11;100.00;102494.81;5034970;28;20021;-75
2021/12/17 11:55:54;;;;;;;16.58;9.95;;;;;;;6.14;100.00;102493.16;5034713;28;20025;-75
2021/12/17 11:58:44;;;;;;;19.67;10.73;;;;;;;6.14;100.00;102492.25;5034996;28;20032;-75
2021/12/17 12:01:10;;;;;;;21.75;11.68;;;;;;;6.06;100.00;102507.94;5034852;28;20029;-75
2021/12/17 12:03:35;;;;;;;23.35;11.30;;;;;;;6.03;100.00;102503.44;5034663;28;20022;-75
2021/12/17 12:06:00;;;;;;;22.02;10.80;;;;;;;6.03;100.00;102502.59;5033328;28;20033;-75
2021/12/17 12:08:39;;;;;;;23.88;10.88;;;;;;;6.07;100.00;102499.16;5034532;28;20033;-75
2021/12/17 12:11:05;;;;;;;21.73;10.95;;;;;;;6.04;100.00;102505.25;5034728;28;20025;-76
2021/12/17 12:13:34;;;;;;;20.02;10.70;;;;;;;6.04;100.00;102507.91;5034924;28;20052;-75
2021/12/17 12:16:04;;;;;;;18.70;10.45;;;;;;;6.04;100.00;102504.34;5034507;28;20017;-75
2021/12/17 12:19:07;;;;;;;20.50;10.38;;;;;;;6.07;100.00;102507.13;5037063;28;20021;-76
2021/12/17 12:21:35;;;;;;;19.98;10.70;;;;;;;6.07;100.00;102508.84;5023290;28;20036;-75
2021/12/17 12:24:16;;;;;;;21.75;11.45;;;;;;;6.13;100.00;102503.72;5034128;28;20029;-75
2021/12/17 12:26:45;;;;;;;23.63;11.48;;;;;;;6.12;100.00;102502.84;5034165;28;20029;-75
2021/12/17 12:29:14;;;;;;;21.38;12.43;;;;;;;6.07;100.00;102496.50;5033958;28;20021;-75
2021/12/17 12:31:45;;;;;;;24.20;13.55;;;;;;;6.03;100.00;102503.44;5034257;28;20036;-75
2021/12/17 12:34:29;;;;;;;20.20;11.70;;;;;;;6.00;100.00;102508.72;5034257;28;20036;-75
2021/12/17 12:37:07;;;;;;;22.02;13.25;;;;;;;6.02;100.00;102506.09;5034471;28;20382;-75
2021/12/17 12:39:35;;;;;;;22.48;14.13;;;;;;;5.97;100.00;102508.63;5032609;28;20026;-75
2021/12/17 12:42:21;;;;;;;23.23;13.65;;;;;;;5.97;100.00;102511.28;5032604;28;20041;-75
2021/12/17 12:44:49;;;;;;;21.00;13.13;;;;;;;5.92;100.00;102510.25;5033815;28;20396;-75
2021/12/17 12:47:25;;;;;;;19.05;12.55;;;;;;;5.91;100.00;102506.72;5033606;28;20045;-75
2021/12/17 12:49:56;;;;;;;23.42;13.38;;;;;;;5.91;100.00;102503.16;5034284;28;20108;-75
2021/12/17 12:52:31;;;;;;;23.58;12.10;;;;;;;5.90;100.00;102499.59;5034007;28;20087;-75
2021/12/17 12:55:43;;;;;;;18.70;11.38;;;;;;;5.90;100.00;102496.94;5034083;28;20385;-75
2021/12/17 12:58:12;;;;;;;18.45;11.43;;;;;;;5.87;100.00;102491.59;4995745;28;20109;-75
2021/12/17 13:00:50;;;;;;;18.25;10.77;;;;;;;5.88;100.00;102498.66;5012355;28;20036;-75
2021/12/17 13:03:26;;;;;;;17.02;11.07;;;;;;;5.97;100.00;102500.66;5017772;28;20029;-75
2021/12/17 13:05:53;;;;;;;16.55;10.50;;;;;;;5.93;100.00;102502.34;5032254;28;20025;-75
2021/12/17 13:08:21;;;;;;;19.05;11.73;;;;;;;5.93;100.00;102494.38;5033408;28;20044;-75
2021/12/17 13:10:54;;;;;;;20.92;12.05;;;;;;;5.95;100.00;102488.22;5032377;28;20082;-75
2021/12/17 13:21:06;;;;;;;18.60;11.50;;;;;;;5.99;100.00;102490.09;5033973;28;20033;-75
2021/12/17 13:23:38;;;;;;;17.67;10.93;;;;;;;5.96;100.00;102485.59;5033415;28;20025;-75
2021/12/17 13:26:07;;;;;;;19.10;12.45;;;;;;;6.01;100.00;102489.25;5032076;28;20021;-75
2021/12/17 13:28:49;;;;;;;20.60;12.38;;;;;;;6.06;100.00;102476.09;5033168;28;20022;-75
2021/12/17 13:31:38;;;;;;;20.35;11.95;;;;;;;6.06;100.00;102475.19;5033264;28;20482;-75
2021/12/17 13:34:12;;;;;;;18.77;11.18;;;;;;;6.07;100.00;102484.97;5033239;28;20053;-75
2021/12/17 13:36:42;;;;;;;;;;;;;;;6.07;100.00;102477.00;5032367;28;20133;-75
2021/12/17 13:39:10;;;;;;;18.25;11.48;;;;;;;6.00;100.00;102468.03;5033396;28;19913;-75
2021/12/17 13:41:44;;;;;;;20.52;12.10;;;;;;;6.02;100.00;102475.16;5033148;28;20029;-75
2021/12/17 13:44:30;;;;;;;;;;;;;;;6.04;100.00;102467.22;5032275;28;20025;-76
2021/12/17 13:47:29;;;;;;;19.13;11.23;;;;;;;6.04;100.00;102464.56;5031637;28;19913;-75
2021/12/17 13:50:06;;;;;;;20.50;12.07;;;;;;;6.02;100.00;102466.28;5033171;28;20160;-75
2021/12/17 13:52:34;;;;;;;20.55;12.25;;;;;;;6.07;100.00;102471.72;5033243;28;20056;-75
2021/12/17 13:55:02;;;;;;;17.35;9.55;;;;;;;6.03;100.00;102470.75;5033407;28;20437;-75
2021/12/17 13:57:29;;;;;;;20.17;9.98;;;;;;;6.01;100.00;102464.50;5031641;28;20025;-75
2021/12/17 14:00:26;;;;;;;15.77;9.27;;;;;;;6.08;100.00;102477.06;5033666;28;20056;-75
2021/12/17 14:02:57;;;;;;;19.08;9.98;;;;;;;6.08;100.00;102487.69;5024948;28;20120;-75
2021/12/17 14:05:49;;;;;;;17.88;9.45;;;;;;;6.14;100.00;102487.84;5036776;28;20053;-75
2021/12/17 14:08:19;;;;;;;16.15;9.18;;;;;;;6.16;100.00;102487.00;5036851;28;20017;-75
2021/12/17 14:10:45;;;;;;;16.25;9.68;;;;;;;6.07;100.00;102483.25;5037493;28;20021;-75
2021/12/17 14:13:18;;;;;;;18.08;9.75;;;;;;;6.06;100.00;102491.13;5036926;28;20025;-75
2021/12/17 14:15:44;;;;;;;20.52;10.23;;;;;;;6.03;100.00;102481.38;5035351;28;20057;-75
2021/12/17 14:18:13;;;;;;;17.80;9.40;;;;;;;6.11;100.00;102484.22;5036488;28;20025;-75
2021/12/17 14:20:53;;;;;;;21.13;10.23;;;;;;;6.05;100.00;102479.63;5036807;28;20024;-75
2021/12/17 14:23:25;;;;;;;18.23;9.70;;;;;;;5.96;100.00;102474.09;5035250;28;20034;-75
2021/12/17 14:25:56;;;;;;;19.48;10.73;;;;;;;5.88;100.00;102474.81;5036709;28;20478;-75
2021/12/17 14:28:25;;;;;;;17.90;9.45;;;;;;;5.88;100.00;102466.84;5036688;28;20036;-75